Time;durP1;ratioP1;P1;durP2;ratioP2;P2;SDS_P1;SDS_P2;PMS_P1;PMS_P2;Temp;Humidity;BMP_temperature;BMP_pressure;BME280_temperature;BME280_humidity;BME280_pressure;Samples;Min_cycle;Max_cycle;Signal;HPM_P1;HPM_P2
2022/05/08 00:00:45;;;;;;;;;;;11.50;99.90;;;;;;2604009;54;19942;31
2022/05/08 00:03:19;;;;;;;;;;;11.50;99.90;;;;;;2622567;46;19935;31
2022/05/08 00:05:53;;;;;;;;;;;11.40;99.90;;;;;;2603628;54;20780;31
2022/05/08 00:08:28;;;;;;;;;;;11.40;99.90;;;;;;2603914;54;20726;31
2022/05/08 00:11:05;;;;;;;;;;;11.30;99.90;;;;;;2622197;46;19934;31
2022/05/08 00:13:39;;;;;;;;;;;11.30;99.90;;;;;;2622220;46;19942;31
2022/05/08 00:16:13;;;;;;;;;;;11.30;99.90;;;;;;2603913;54;19934;31
2022/05/08 00:18:47;;;;;;;;;;;11.20;99.90;;;;;;2603811;54;20834;31
2022/05/08 00:21:21;;;;;;;;;;;11.20;99.90;;;;;;2603931;54;19939;31
2022/05/08 00:23:55;;;;;;;;;;;11.20;99.90;;;;;;2603721;54;19934;31
2022/05/08 00:26:37;;;;;;;;;;;11.10;99.90;;;;;;2622211;46;20065;31
2022/05/08 00:29:12;;;;;;;;;;;11.10;99.90;;;;;;2603930;54;20033;31
2022/05/08 00:31:44;;;;;;;;;;;11.10;99.90;;;;;;2721131;39;20952;31
2022/05/08 00:34:19;;;;;;;;;;;11.00;99.90;;;;;;2622319;46;19939;31
2022/05/08 00:36:53;;;;;;;;;;;11.00;99.90;;;;;;2622256;46;19935;31
2022/05/08 00:39:27;;;;;;;;;;;11.00;99.90;;;;;;2603650;54;19940;31
2022/05/08 00:42:04;;;;;;;;;;;10.90;99.90;;;;;;2622411;46;19989;31
2022/05/08 00:44:38;;;;;;;;;;;10.80;99.90;;;;;;2603752;54;20017;31
2022/05/08 00:47:12;;;;;;;;;;;10.70;99.90;;;;;;2603754;54;19935;31
2022/05/08 00:49:46;;;;;;;;;;;10.70;99.90;;;;;;2603730;54;19935;31
2022/05/08 00:52:20;;;;;;;;;;;10.70;99.90;;;;;;2622359;46;20721;31
2022/05/08 00:54:55;;;;;;;;;;;10.70;99.90;;;;;;2622098;46;19935;31
2022/05/08 00:57:33;;;;;;;;;;;10.70;99.90;;;;;;2603668;54;19989;31
2022/05/08 01:00:12;;;;;;;;;;;10.60;99.90;;;;;;2603561;54;20757;31
2022/05/08 01:02:46;;;;;;;;;;;10.60;99.90;;;;;;2603766;54;19946;31
2022/05/08 01:05:20;;;;;;;;;;;10.50;99.90;;;;;;2603860;54;19994;31
2022/05/08 01:07:54;;;;;;;;;;;10.40;99.90;;;;;;2603652;54;20818;31
2022/05/08 01:10:28;;;;;;;;;;;10.40;99.90;;;;;;2603687;54;19942;31
2022/05/08 01:13:05;;;;;;;;;;;10.40;99.90;;;;;;2622175;46;19989;31
2022/05/08 01:15:46;;;;;;;;;;;10.30;99.90;;;;;;2621737;46;19935;31
2022/05/08 01:18:19;;;;;;;;;;;10.30;99.90;;;;;;2622236;46;20739;31
2022/05/08 01:20:53;;;;;;;;;;;10.30;99.90;;;;;;2622156;47;20014;31
2022/05/08 01:23:30;;;;;;;;;;;10.20;99.90;;;;;;2603663;54;19935;31
2022/05/08 01:26:03;;;;;;;;;;;10.30;99.90;;;;;;2603757;54;19942;31
2022/05/08 01:28:37;;;;;;;;;;;10.20;99.90;;;;;;2603580;54;20744;31
2022/05/08 01:31:11;;;;;;;;;;;10.30;99.90;;;;;;2603679;54;19941;31
2022/05/08 01:33:45;;;;;;;;;;;10.20;99.90;;;;;;2603334;54;19942;31
2022/05/08 01:36:19;;;;;;;;;;;10.10;99.90;;;;;;2603304;54;20818;31
2022/05/08 01:38:57;;;;;;;;;;;10.10;99.90;;;;;;2622021;47;19950;31
2022/05/08 01:41:31;;;;;;;;;;;10.00;99.90;;;;;;2603089;54;19935;31
2022/05/08 01:44:06;;;;;;;;;;;10.00;99.90;;;;;;2603440;54;20731;31
2022/05/08 01:46:39;;;;;;;;;;;9.90;99.90;;;;;;2603645;54;19935;31
2022/05/08 01:49:11;;;;;;;;;;;9.90;99.90;;;;;;2603612;54;20018;31
2022/05/08 01:51:45;;;;;;;;;;;9.90;99.90;;;;;;2603294;54;19941;31
2022/05/08 01:54:21;;;;;;;;;;;9.90;99.90;;;;;;2603452;54;20001;31
2022/05/08 01:56:53;;;;;;;;;;;9.80;99.90;;;;;;2621735;47;19946;31
2022/05/08 01:59:27;;;;;;;;;;;9.80;99.90;;;;;;2603543;54;19934;31
2022/05/08 02:02:01;;;;;;;;;;;9.80;99.90;;;;;;2621839;47;19989;31
2022/05/08 02:04:37;;;;;;;;;;;9.70;99.90;;;;;;2603479;54;19935;31
2022/05/08 02:07:11;;;;;;;;;;;9.60;99.90;;;;;;2621421;47;19943;31
2022/05/08 02:09:47;;;;;;;;;;;10.10;99.90;;;;;;2603369;54;19955;31
2022/05/08 02:12:21;;;;;;;;;;;9.60;99.90;;;;;;2621678;47;19946;31
2022/05/08 02:14:55;;;;;;;;;;;9.60;99.90;;;;;;2621882;47;19934;31
2022/05/08 02:17:29;;;;;;;;;;;9.60;99.90;;;;;;2603389;54;20797;31
2022/05/08 02:20:03;;;;;;;;;;;9.50;99.90;;;;;;2603467;54;19935;31
2022/05/08 02:22:37;;;;;;;;;;;9.50;99.90;;;;;;2603164;54;19939;31
2022/05/08 02:25:14;;;;;;;;;;;9.40;99.90;;;;;;2603517;54;19934;31
2022/05/08 02:27:49;;;;;;;;;;;9.40;99.90;;;;;;2622207;47;19942;31
2022/05/08 02:30:23;;;;;;;;;;;9.90;99.90;;;;;;2604285;54;20785;31
2022/05/08 02:32:57;;;;;;;;;;;9.40;99.90;;;;;;2604096;54;20772;31
2022/05/08 02:35:33;;;;;;;;;;;9.40;99.90;;;;;;2604274;54;19934;31
2022/05/08 02:38:09;;;;;;;;;;;9.40;99.90;;;;;;2622621;46;19947;31
2022/05/08 02:40:45;;;;;;;;;;;9.40;99.90;;;;;;2604280;54;20754;31
2022/05/08 02:43:20;;;;;;;;;;;9.30;99.90;;;;;;2604272;54;19935;31
2022/05/08 02:45:59;;;;;;;;;;;9.30;99.90;;;;;;2622644;46;20792;31
2022/05/08 02:48:33;;;;;;;;;;;9.30;99.90;;;;;;2604000;54;20779;31
2022/05/08 02:51:07;;;;;;;;;;;9.30;99.90;;;;;;2622458;46;19965;31
2022/05/08 02:53:41;;;;;;;;;;;9.20;99.90;;;;;;2604143;54;19935;31
2022/05/08 02:59:05;;;;;;;;;;;9.10;99.90;;;;;;2622665;46;19942;31
2022/05/08 03:01:40;;;;;;;;;;;9.70;99.90;;;;;;2622491;46;20784;31
2022/05/08 03:04:14;;;;;;;;;;;9.10;99.90;;;;;;2622541;46;19934;31
2022/05/08 03:06:46;;;;;;;;;;;9.10;99.90;;;;;;2702841;39;20967;31
2022/05/08 03:09:21;;;;;;;;;;;9.00;99.90;;;;;;2603857;54;20010;31
2022/05/08 03:11:57;;;;;;;;;;;9.10;99.90;;;;;;2604012;54;20050;31
2022/05/08 03:14:30;;;;;;;;;;;8.90;99.90;;;;;;2604091;54;19935;31
2022/05/08 03:17:03;;;;;;;;;;;9.40;99.90;;;;;;2604020;54;19966;31
2022/05/08 03:19:37;;;;;;;;;;;8.90;99.90;;;;;;2603869;54;20752;31
2022/05/08 03:22:12;;;;;;;;;;;8.90;99.90;;;;;;2622329;46;19942;31
2022/05/08 03:24:45;;;;;;;;;;;8.90;99.90;;;;;;2604098;54;19941;31
2022/05/08 03:27:22;;;;;;;;;;;8.90;99.90;;;;;;2622495;46;19962;31
2022/05/08 03:29:58;;;;;;;;;;;8.90;99.90;;;;;;2603946;54;20730;31
2022/05/08 03:32:33;;;;;;;;;;;8.90;99.90;;;;;;2622207;46;19935;31
2022/05/08 03:35:06;;;;;;;;;;;8.90;99.90;;;;;;2622634;46;19941;31
2022/05/08 03:37:40;;;;;;;;;;;9.40;99.90;;;;;;2603843;54;19989;31
2022/05/08 03:40:15;;;;;;;;;;;9.00;99.90;;;;;;2622281;46;19941;31
2022/05/08 03:42:51;;;;;;;;;;;9.00;99.90;;;;;;2622062;46;19934;31
2022/05/08 03:45:28;;;;;;;;;;;9.00;99.90;;;;;;2622114;46;20805;31
2022/05/08 03:48:03;;;;;;;;;;;9.10;99.90;;;;;;2604193;54;19935;31
2022/05/08 03:50:35;;;;;;;;;;;9.50;99.90;;;;;;2702597;39;20922;31
2022/05/08 03:53:08;;;;;;;;;;;9.10;99.90;;;;;;2604057;54;19939;31
2022/05/08 03:55:44;;;;;;;;;;;9.60;99.90;;;;;;2622485;46;20763;31
2022/05/08 03:58:18;;;;;;;;;;;9.30;99.90;;;;;;2622338;46;19934;31
2022/05/08 04:00:55;;;;;;;;;;;9.40;99.90;;;;;;2622136;46;19942;31
2022/05/08 04:03:30;;;;;;;;;;;9.50;99.90;;;;;;2603860;54;20747;31
2022/05/08 04:06:04;;;;;;;;;;;9.60;99.90;;;;;;2603810;54;19934;31
2022/05/08 04:08:38;;;;;;;;;;;9.80;99.90;;;;;;2603749;54;19941;31
2022/05/08 04:11:13;;;;;;;;;;;10.00;99.90;;;;;;2604078;54;19993;31
2022/05/08 04:13:46;;;;;;;;;;;10.10;99.90;;;;;;2603803;54;19934;31
2022/05/08 04:16:22;;;;;;;;;;;10.20;99.90;;;;;;2603633;54;19941;31
2022/05/08 04:18:56;;;;;;;;;;;10.30;99.90;;;;;;2622373;46;19993;31
2022/05/08 04:21:32;;;;;;;;;;;10.50;99.90;;;;;;2603898;54;20038;31
2022/05/08 04:26:52;;;;;;;;;;;10.90;99.90;;;;;;2622387;46;19938;31
2022/05/08 04:29:27;;;;;;;;;;;11.10;99.90;;;;;;2622519;46;19935;31
2022/05/08 04:32:03;;;;;;;;;;;11.30;99.90;;;;;;2603680;54;19935;31
2022/05/08 04:34:38;;;;;;;;;;;11.50;99.90;;;;;;2603750;54;19941;31
2022/05/08 04:37:11;;;;;;;;;;;11.70;99.90;;;;;;2603901;54;19935;31
2022/05/08 04:39:44;;;;;;;;;;;12.00;99.90;;;;;;2603051;54;19946;31
2022/05/08 04:42:18;;;;;;;;;;;12.10;99.90;;;;;;2603478;54;20755;31
2022/05/08 04:44:51;;;;;;;;;;;12.20;99.90;;;;;;2622036;46;19934;31
2022/05/08 04:47:28;;;;;;;;;;;12.40;99.90;;;;;;2621914;46;19946;31
2022/05/08 04:50:01;;;;;;;;;;;12.50;99.90;;;;;;2603359;54;19934;31
2022/05/08 04:52:36;;;;;;;;;;;12.70;99.90;;;;;;2622325;46;20747;31
2022/05/08 04:55:11;;;;;;;;;;;12.90;99.90;;;;;;2622388;46;19995;31
2022/05/08 04:57:45;;;;;;;;;;;13.10;99.90;;;;;;2603482;54;19939;31
2022/05/08 05:00:19;;;;;;;;;;;13.30;99.90;;;;;;2603788;54;20771;31
2022/05/08 05:02:56;;;;;;;;;;;13.50;99.90;;;;;;2603634;54;20822;31
2022/05/08 05:05:29;;;;;;;;;;;13.90;99.90;;;;;;2603664;54;19934;31
2022/05/08 05:08:03;;;;;;;;;;;14.10;99.90;;;;;;2603643;54;19989;31
2022/05/08 05:10:37;;;;;;;;;;;14.30;99.90;;;;;;2603801;54;19986;31
2022/05/08 05:13:11;;;;;;;;;;;14.40;99.90;;;;;;2603786;54;19935;31
2022/05/08 05:15:45;;;;;;;;;;;14.60;99.90;;;;;;2603317;54;20807;31
2022/05/08 05:18:19;;;;;;;;;;;14.90;99.90;;;;;;2702354;39;20913;31
2022/05/08 05:20:54;;;;;;;;;;;15.10;99.90;;;;;;2603589;54;20771;31
2022/05/08 05:23:26;;;;;;;;;;;15.30;99.90;;;;;;2720715;39;20990;31
2022/05/08 05:25:59;;;;;;;;;;;15.50;99.90;;;;;;2622014;47;19935;31
2022/05/08 05:28:34;;;;;;;;;;;15.70;99.90;;;;;;2603464;54;19947;31
2022/05/08 05:31:14;;;;;;;;;;;15.90;99.90;;;;;;2621838;47;19962;31
2022/05/08 05:33:50;;;;;;;;;;;16.10;99.90;;;;;;2603349;54;20634;31
2022/05/08 05:36:22;;;;;;;;;;;16.30;99.90;;;;;;2702342;39;22124;31
2022/05/08 05:38:56;;;;;;;;;;;16.40;99.90;;;;;;2621721;47;20497;31
2022/05/08 05:41:30;;;;;;;;;;;16.60;99.90;;;;;;2621860;47;20753;31
2022/05/08 05:44:05;;;;;;;;;;;16.80;99.90;;;;;;2622112;47;19935;31
2022/05/08 05:49:30;;;;;;;;;;;17.10;99.90;;;;;;2609130;47;19934;31
2022/05/08 05:52:05;;;;;;;;;;;17.30;99.90;;;;;;2603535;54;20768;31
2022/05/08 05:54:40;;;;;;;;;;;17.60;99.90;;;;;;2622243;47;20736;31
2022/05/08 05:57:13;;;;;;;;;;;17.90;99.90;;;;;;2621764;47;19935;31
2022/05/08 05:59:47;;;;;;;;;;;18.10;99.90;;;;;;2603571;54;19953;31
2022/05/08 06:02:20;;;;;;;;;;;18.20;99.90;;;;;;2622197;47;20724;31
2022/05/08 06:04:57;;;;;;;;;;;18.30;99.90;;;;;;2604523;54;19941;31
2022/05/08 06:07:32;;;;;;;;;;;18.20;99.90;;;;;;2604088;54;19997;31
2022/05/08 06:10:06;;;;;;;;;;;18.10;99.90;;;;;;2622355;46;19935;31
2022/05/08 06:12:41;;;;;;;;;;;17.90;99.90;;;;;;2622634;46;19942;31
2022/05/08 06:15:15;;;;;;;;;;;17.70;99.90;;;;;;2604434;54;20701;31
2022/05/08 06:17:49;;;;;;;;;;;17.90;99.90;;;;;;2622936;46;19934;31
2022/05/08 06:20:26;;;;;;;;;;;18.10;99.90;;;;;;2603852;54;20790;31
2022/05/08 06:23:00;;;;;;;;;;;18.20;99.90;;;;;;2622677;46;19993;31
2022/05/08 06:25:41;;;;;;;;;;;18.60;99.90;;;;;;2604308;54;19939;31
2022/05/08 06:28:19;;;;;;;;;;;18.90;99.90;;;;;;2603792;54;19934;31
2022/05/08 06:30:53;;;;;;;;;;;19.10;99.90;;;;;;2622630;46;19934;31
2022/05/08 06:33:28;;;;;;;;;;;19.30;99.90;;;;;;2603912;54;19943;31
2022/05/08 06:36:07;;;;;;;;;;;19.60;99.90;;;;;;2604229;54;19935;31
2022/05/08 06:38:45;;;;;;;;;;;19.80;99.90;;;;;;2622356;46;20664;31
2022/05/08 06:41:19;;;;;;;;;;;20.00;99.90;;;;;;2622749;46;20799;31
2022/05/08 06:43:53;;;;;;;;;;;20.30;99.90;;;;;;2604136;54;19939;31
2022/05/08 06:46:31;;;;;;;;;;;20.50;99.90;;;;;;2622863;46;19939;31
2022/05/08 06:49:07;;;;;;;;;;;20.70;99.90;;;;;;2702731;39;21046;31
2022/05/08 06:51:43;;;;;;;;;;;21.10;99.90;;;;;;2622511;46;19934;31
2022/05/08 06:54:19;;;;;;;;;;;21.30;99.90;;;;;;2604034;54;19941;31
2022/05/08 06:56:56;;;;;;;;;;;21.50;99.90;;;;;;2604251;54;19941;31
2022/05/08 07:02:15;;;;;;;;;;;22.00;99.90;;;;;;2622491;46;19941;31
2022/05/08 07:04:49;;;;;;;;;;;22.20;99.90;;;;;;2622870;46;20759;31
2022/05/08 07:07:23;;;;;;;;;;;22.40;99.90;;;;;;2603907;54;20013;31
2022/05/08 07:10:01;;;;;;;;;;;22.70;99.90;;;;;;2622436;46;19941;31
2022/05/08 07:12:36;;;;;;;;;;;22.90;99.90;;;;;;2604040;54;19934;31
2022/05/08 07:15:10;;;;;;;;;;;23.20;99.90;;;;;;2622569;47;19990;31
2022/05/08 07:17:43;;;;;;;;;;;23.30;99.90;;;;;;2622886;46;19995;31
2022/05/08 07:20:17;;;;;;;;;;;23.40;99.90;;;;;;2622042;46;19934;31
2022/05/08 07:22:50;;;;;;;;;;;23.60;99.90;;;;;;2604202;54;19942;31
2022/05/08 07:25:27;;;;;;;;;;;23.70;99.90;;;;;;2604061;54;20720;31
2022/05/08 07:28:02;;;;;;;;;;;23.80;99.90;;;;;;2604187;54;20815;31
2022/05/08 07:30:38;;;;;;;;;;;24.10;99.90;;;;;;2702700;39;20413;31
2022/05/08 07:33:16;;;;;;;;;;;24.40;99.90;;;;;;2622457;46;19941;31
2022/05/08 07:38:36;;;;;;;;;;;24.60;99.50;;;;;;2603878;54;19942;31
2022/05/08 07:41:14;;;;;;;;;;;24.90;99.80;;;;;;2603750;54;19939;31
2022/05/08 07:43:47;;;;;;;;;;;24.90;98.00;;;;;;2774138;31;21096;31
2022/05/08 07:46:23;;;;;;;;;;;24.80;98.00;;;;;;2702069;39;21212;31
2022/05/08 07:48:58;;;;;;;;;;;24.60;98.10;;;;;;2603689;54;20029;31
2022/05/08 07:51:32;;;;;;;;;;;24.60;98.00;;;;;;2604041;54;20751;31
2022/05/08 07:54:06;;;;;;;;;;;24.60;98.00;;;;;;2702398;39;20487;31
2022/05/08 07:56:42;;;;;;;;;;;24.30;97.60;;;;;;2622212;46;19942;31
2022/05/08 07:59:19;;;;;;;;;;;24.30;98.40;;;;;;2603760;54;19937;31
2022/05/08 08:01:53;;;;;;;;;;;24.20;98.00;;;;;;2603990;54;20777;31
2022/05/08 08:04:28;;;;;;;;;;;24.10;99.40;;;;;;2622221;46;20793;31
2022/05/08 08:07:00;;;;;;;;;;;23.90;99.00;;;;;;2792810;31;21039;31
2022/05/08 08:09:34;;;;;;;;;;;23.90;98.30;;;;;;2622597;46;19953;31
2022/05/08 08:12:12;;;;;;;;;;;24.00;98.30;;;;;;2622202;46;19934;31
2022/05/08 08:14:47;;;;;;;;;;;24.00;98.30;;;;;;2603944;54;20786;31
2022/05/08 08:17:22;;;;;;;;;;;24.20;99.20;;;;;;2603950;54;19930;31
2022/05/08 08:19:55;;;;;;;;;;;24.30;98.80;;;;;;2603736;54;20775;31
2022/05/08 08:22:30;;;;;;;;;;;24.40;98.70;;;;;;2603744;54;20783;31
2022/05/08 08:25:05;;;;;;;;;;;24.80;98.40;;;;;;2603393;54;19958;31
2022/05/08 08:27:40;;;;;;;;;;;25.10;97.60;;;;;;2622164;46;19934;31
2022/05/08 08:30:19;;;;;;;;;;;25.50;98.30;;;;;;2604079;54;19993;31
2022/05/08 08:32:53;;;;;;;;;;;25.50;98.70;;;;;;2603757;54;20679;31
2022/05/08 08:35:27;;;;;;;;;;;25.50;97.10;;;;;;2622281;46;19993;31
2022/05/08 08:38:01;;;;;;;;;;;25.50;96.50;;;;;;2603963;54;19941;31
2022/05/08 08:40:35;;;;;;;;;;;25.70;98.20;;;;;;2603619;54;19938;31
2022/05/08 08:43:11;;;;;;;;;;;25.90;97.70;;;;;;2603799;54;19934;31
2022/05/08 08:48:34;;;;;;;;;;;26.40;97.00;;;;;;2622155;46;19989;31
2022/05/08 08:51:08;;;;;;;;;;;26.60;96.10;;;;;;2603868;54;20753;31
2022/05/08 08:53:42;;;;;;;;;;;26.60;94.70;;;;;;2603745;54;19935;31
2022/05/08 08:56:18;;;;;;;;;;;26.60;94.70;;;;;;2702030;39;21214;31
2022/05/08 08:58:53;;;;;;;;;;;26.60;94.80;;;;;;2603393;54;19953;31
2022/05/08 09:01:30;;;;;;;;;;;26.50;95.90;;;;;;2603522;54;20025;31
2022/05/08 09:04:05;;;;;;;;;;;26.50;95.10;;;;;;2603424;54;20799;31
2022/05/08 09:06:39;;;;;;;;;;;26.60;94.80;;;;;;2621857;46;20735;31
2022/05/08 09:09:23;;;;;;;;;;;26.70;93.90;;;;;;2622192;46;19935;31
2022/05/08 09:11:55;;;;;;;;;;;26.80;94.40;;;;;;2721016;39;20892;31
2022/05/08 09:14:30;;;;;;;;;;;26.80;93.20;;;;;;2622015;46;20743;31
2022/05/08 09:17:08;;;;;;;;;;;26.80;93.40;;;;;;2773459;31;21244;31
2022/05/08 09:19:42;;;;;;;;;;;26.90;92.70;;;;;;2622247;46;19993;31
2022/05/08 09:22:23;;;;;;;;;;;26.90;94.10;;;;;;2720837;39;20796;31
2022/05/08 09:25:02;;;;;;;;;;;26.60;92.00;;;;;;2603475;54;20728;31
2022/05/08 09:27:37;;;;;;;;;;;26.60;92.60;;;;;;2622103;47;20741;31
2022/05/08 09:30:14;;;;;;;;;;;26.40;91.40;;;;;;2621888;47;20024;31
2022/05/08 09:32:53;;;;;;;;;;;26.30;92.00;;;;;;2603429;54;19934;31
2022/05/08 09:35:28;;;;;;;;;;;26.30;92.90;;;;;;2603140;54;19961;31
2022/05/08 09:38:04;;;;;;;;;;;26.20;92.90;;;;;;2604244;54;19941;31
2022/05/08 09:40:38;;;;;;;;;;;26.20;93.30;;;;;;2604358;54;19935;31
2022/05/08 09:43:16;;;;;;;;;;;26.20;92.40;;;;;;2604182;54;19941;31
2022/05/08 09:45:58;;;;;;;;;;;26.20;93.30;;;;;;2603498;54;19957;31
2022/05/08 09:48:36;;;;;;;;;;;26.10;93.30;;;;;;2622763;46;19990;31
2022/05/08 09:51:10;;;;;;;;;;;25.80;93.00;;;;;;2604276;54;19934;31
2022/05/08 09:53:45;;;;;;;;;;;25.90;93.80;;;;;;2604415;54;19997;31
2022/05/08 09:56:20;;;;;;;;;;;26.00;93.10;;;;;;2622825;46;19941;31
2022/05/08 09:58:53;;;;;;;;;;;26.10;94.00;;;;;;2604380;54;19942;31
2022/05/08 10:01:27;;;;;;;;;;;26.20;93.50;;;;;;2604214;54;19946;31
2022/05/08 10:04:05;;;;;;;;;;;26.30;93.50;;;;;;2604222;54;20772;31
2022/05/08 10:06:40;;;;;;;;;;;26.30;93.80;;;;;;2604080;54;19946;31
2022/05/08 10:14:49;;;;;;;;;;;26.20;94.00;;;;;;2622333;46;20662;31
2022/05/08 10:17:30;;;;;;;;;;;26.30;93.40;;;;;;2622422;46;19934;31
2022/05/08 10:20:10;;;;;;;;;;;26.40;92.70;;;;;;2604028;54;19942;31
2022/05/08 10:22:50;;;;;;;;;;;26.60;93.50;;;;;;2604142;54;19957;31
2022/05/08 10:25:25;;;;;;;;;;;26.70;92.30;;;;;;2622514;46;19935;31
2022/05/08 10:28:09;;;;;;;;;;;26.70;92.60;;;;;;2622886;46;19997;31
2022/05/08 10:30:44;;;;;;;;;;;26.70;92.50;;;;;;2603811;54;19965;31
2022/05/08 10:33:18;;;;;;;;;;;26.60;92.10;;;;;;2603923;54;20749;31
2022/05/08 10:36:08;;;;;;;;;;;26.50;92.80;;;;;;2622620;46;19946;31
2022/05/08 10:38:43;;;;;;;;;;;26.50;91.90;;;;;;2604100;54;20858;31
2022/05/08 10:41:32;;;;;;;;;;;26.50;93.10;;;;;;2604082;54;19946;31
2022/05/08 10:44:21;;;;;;;;;;;26.50;93.10;;;;;;2702826;39;21036;31
2022/05/08 10:46:55;;;;;;;;;;;26.50;92.80;;;;;;2603933;54;19981;31
2022/05/08 10:49:30;;;;;;;;;;;26.60;93.60;;;;;;2603820;54;19934;31
2022/05/08 10:52:15;;;;;;;;;;;26.60;92.60;;;;;;2604043;54;20731;31
2022/05/08 10:54:57;;;;;;;;;;;26.50;91.90;;;;;;2603693;54;20646;31
2022/05/08 10:57:32;;;;;;;;;;;26.40;92.80;;;;;;2622822;46;19934;31
2022/05/08 11:00:07;;;;;;;;;;;26.10;92.30;;;;;;2622199;46;19977;31
2022/05/08 11:02:41;;;;;;;;;;;26.10;92.50;;;;;;2604093;54;20013;31
2022/05/08 11:05:14;;;;;;;;;;;26.20;92.40;;;;;;2622312;46;20775;31
2022/05/08 11:07:55;;;;;;;;;;;26.30;93.30;;;;;;2603967;54;19935;31
2022/05/08 11:10:28;;;;;;;;;;;26.30;92.90;;;;;;2603886;54;19990;31
2022/05/08 11:13:02;;;;;;;;;;;26.40;92.80;;;;;;2604272;54;19935;31
2022/05/08 11:15:38;;;;;;;;;;;26.20;92.40;;;;;;2604038;54;19934;31
2022/05/08 11:18:12;;;;;;;;;;;26.00;92.00;;;;;;2603677;54;19934;31
2022/05/08 11:20:49;;;;;;;;;;;25.90;92.30;;;;;;2604181;54;19940;31
2022/05/08 11:23:26;;;;;;;;;;;25.90;91.80;;;;;;2604029;54;19935;31
2022/05/08 11:26:01;;;;;;;;;;;25.90;91.60;;;;;;2603833;54;19939;31
2022/05/08 11:28:35;;;;;;;;;;;25.90;92.60;;;;;;2622557;46;19935;31
2022/05/08 11:31:14;;;;;;;;;;;25.80;92.70;;;;;;2603925;54;19997;31
2022/05/08 11:36:35;;;;;;;;;;;25.80;92.50;;;;;;2702576;39;20942;31
2022/05/08 11:39:13;;;;;;;;;;;25.80;92.40;;;;;;2603250;54;19945;31
2022/05/08 11:41:47;;;;;;;;;;;25.80;91.70;;;;;;2604082;54;19941;31
2022/05/08 11:44:23;;;;;;;;;;;25.80;92.40;;;;;;2622436;46;20666;31
2022/05/08 11:46:58;;;;;;;;;;;25.80;93.20;;;;;;2603808;54;20785;31
2022/05/08 11:49:32;;;;;;;;;;;25.80;93.70;;;;;;2603757;54;19958;31
2022/05/08 11:52:08;;;;;;;;;;;25.80;92.90;;;;;;2603852;54;20073;31
2022/05/08 11:54:44;;;;;;;;;;;25.70;93.20;;;;;;2622480;46;19935;31
2022/05/08 11:57:19;;;;;;;;;;;25.70;92.40;;;;;;2603837;54;20873;31
2022/05/08 11:59:54;;;;;;;;;;;25.70;92.80;;;;;;2603765;54;19935;31
2022/05/08 12:02:39;;;;;;;;;;;25.60;92.50;;;;;;2622309;46;20029;31
2022/05/08 12:05:19;;;;;;;;;;;25.50;93.10;;;;;;2603536;54;19939;31
2022/05/08 12:07:53;;;;;;;;;;;25.50;93.70;;;;;;2603706;54;20768;31
2022/05/08 12:10:43;;;;;;;;;;;25.40;91.60;;;;;;2603973;54;20810;31
2022/05/08 12:13:17;;;;;;;;;;;25.20;92.10;;;;;;2603617;54;19934;31
2022/05/08 12:15:51;;;;;;;;;;;25.00;92.30;;;;;;2603809;54;20764;31
2022/05/08 12:18:25;;;;;;;;;;;24.80;92.70;;;;;;2603931;54;19935;31
2022/05/08 12:20:59;;;;;;;;;;;24.60;92.90;;;;;;2603664;54;20069;31
2022/05/08 12:23:33;;;;;;;;;;;24.30;93.20;;;;;;2603545;54;19990;31
2022/05/08 12:26:12;;;;;;;;;;;24.20;93.80;;;;;;2603775;54;19993;31
2022/05/08 12:28:45;;;;;;;;;;;24.00;93.80;;;;;;2603914;54;19941;31
2022/05/08 12:31:19;;;;;;;;;;;23.80;94.30;;;;;;2603914;54;19961;31
2022/05/08 12:33:54;;;;;;;;;;;23.70;94.70;;;;;;2603670;54;19935;31
2022/05/08 12:36:28;;;;;;;;;;;23.60;94.40;;;;;;2604007;54;19941;31
2022/05/08 12:39:02;;;;;;;;;;;23.60;94.70;;;;;;2603638;54;19934;31
2022/05/08 12:41:38;;;;;;;;;;;23.60;95.40;;;;;;2622520;46;19941;31
2022/05/08 12:44:11;;;;;;;;;;;23.50;94.80;;;;;;2603807;54;20006;31
2022/05/08 12:46:45;;;;;;;;;;;23.50;95.90;;;;;;2603818;54;19935;31
2022/05/08 12:49:19;;;;;;;;;;;23.50;95.10;;;;;;2622255;46;20798;31
2022/05/08 12:51:53;;;;;;;;;;;23.30;95.10;;;;;;2622500;46;19941;31
2022/05/08 12:54:27;;;;;;;;;;;23.30;95.30;;;;;;2603767;54;19935;31
2022/05/08 12:57:05;;;;;;;;;;;23.20;96.30;;;;;;2622298;46;19957;31
2022/05/08 12:59:47;;;;;;;;;;;23.20;95.80;;;;;;2603821;54;19940;31
2022/05/08 13:02:21;;;;;;;;;;;23.20;95.80;;;;;;2622017;46;19934;31
2022/05/08 13:04:55;;;;;;;;;;;23.40;95.10;;;;;;2603440;54;19986;31
2022/05/08 13:07:28;;;;;;;;;;;23.60;95.50;;;;;;2603548;54;20808;31
2022/05/08 13:10:02;;;;;;;;;;;23.70;94.50;;;;;;2603541;54;19982;31
2022/05/08 13:12:38;;;;;;;;;;;23.70;95.50;;;;;;2621963;46;20767;31
2022/05/08 13:17:39;;;;;;;;;;;23.90;95.00;;;;;;2621685;46;20769;31
2022/05/08 13:20:13;;;;;;;;;;;23.90;95.10;;;;;;2603452;54;20014;31
2022/05/08 13:22:47;;;;;;;;;;;23.90;94.50;;;;;;2603551;54;19935;31
2022/05/08 13:25:24;;;;;;;;;;;24.00;94.60;;;;;;2603657;54;19989;31
2022/05/08 13:28:00;;;;;;;;;;;24.00;93.90;;;;;;2603596;54;20042;31
2022/05/08 13:30:33;;;;;;;;;;;24.00;93.60;;;;;;2621784;47;19946;31
2022/05/08 13:33:07;;;;;;;;;;;24.00;92.80;;;;;;2622152;47;19934;31
2022/05/08 13:35:41;;;;;;;;;;;23.90;93.60;;;;;;2603657;54;19986;31
2022/05/08 13:38:15;;;;;;;;;;;23.80;93.60;;;;;;2621970;47;19941;31
2022/05/08 13:40:51;;;;;;;;;;;23.70;93.60;;;;;;2603646;54;19997;31
2022/05/08 13:43:29;;;;;;;;;;;23.50;94.10;;;;;;2603497;54;20033;31
2022/05/08 13:46:04;;;;;;;;;;;23.40;93.90;;;;;;2603658;54;19934;31
2022/05/08 13:48:42;;;;;;;;;;;23.20;94.00;;;;;;2603447;54;19962;31
2022/05/08 13:51:16;;;;;;;;;;;23.10;94.90;;;;;;2605225;47;19935;31
2022/05/08 13:53:50;;;;;;;;;;;23.00;94.20;;;;;;2603649;54;19935;31
2022/05/08 13:56:24;;;;;;;;;;;23.00;95.60;;;;;;2621941;47;19986;31
2022/05/08 13:59:06;;;;;;;;;;;23.00;94.80;;;;;;2621818;47;20009;31
2022/05/08 14:01:39;;;;;;;;;;;23.10;95.40;;;;;;2603233;54;20802;31
2022/05/08 14:04:15;;;;;;;;;;;23.10;95.20;;;;;;2603257;54;19935;31
2022/05/08 14:06:49;;;;;;;;;;;23.00;94.20;;;;;;2621838;47;19943;31
2022/05/08 14:09:24;;;;;;;;;;;22.90;94.90;;;;;;2603457;54;20827;31
2022/05/08 14:11:58;;;;;;;;;;;22.70;94.70;;;;;;2621896;47;19934;31
2022/05/08 14:14:34;;;;;;;;;;;22.70;95.10;;;;;;2603280;54;20013;31
2022/05/08 14:17:07;;;;;;;;;;;22.60;95.30;;;;;;2621771;47;19941;31
2022/05/08 14:19:41;;;;;;;;;;;22.50;95.60;;;;;;2603507;54;20045;31
2022/05/08 14:22:15;;;;;;;;;;;22.50;95.50;;;;;;2603577;54;19938;31
2022/05/08 14:24:49;;;;;;;;;;;22.60;95.20;;;;;;2721472;39;20379;31
2022/05/08 14:27:23;;;;;;;;;;;22.60;95.00;;;;;;2604015;54;20806;31
2022/05/08 14:29:59;;;;;;;;;;;22.60;95.80;;;;;;2604273;54;19934;31
2022/05/08 14:38:07;;;;;;;;;;;22.60;94.90;;;;;;2622622;46;19935;31
2022/05/08 14:40:41;;;;;;;;;;;22.50;94.90;;;;;;2604303;54;19934;31
2022/05/08 14:43:15;;;;;;;;;;;22.30;94.60;;;;;;2604297;54;19935;31
2022/05/08 14:45:51;;;;;;;;;;;22.30;95.30;;;;;;2604025;54;19934;31
2022/05/08 14:48:27;;;;;;;;;;;22.30;95.70;;;;;;2604110;54;19938;31
2022/05/08 14:51:01;;;;;;;;;;;22.20;94.90;;;;;;2604235;54;19939;31
2022/05/08 14:53:37;;;;;;;;;;;22.20;95.40;;;;;;2604170;54;19958;31
2022/05/08 14:56:12;;;;;;;;;;;22.20;95.80;;;;;;2622673;46;20782;31
2022/05/08 14:58:45;;;;;;;;;;;22.10;95.50;;;;;;2604376;54;20025;31
2022/05/08 15:01:21;;;;;;;;;;;22.10;95.40;;;;;;2622522;46;19941;31
2022/05/08 15:03:56;;;;;;;;;;;22.20;95.30;;;;;;2622438;46;20006;31
2022/05/08 15:06:30;;;;;;;;;;;22.10;95.90;;;;;;2604072;54;20025;31
2022/05/08 15:09:05;;;;;;;;;;;22.10;96.30;;;;;;2622721;46;19935;31
2022/05/08 15:11:40;;;;;;;;;;;22.20;96.10;;;;;;2622552;46;20030;31
2022/05/08 15:14:16;;;;;;;;;;;22.20;95.40;;;;;;2622382;46;19994;31
2022/05/08 15:16:53;;;;;;;;;;;22.10;94.90;;;;;;2622600;46;19934;31
2022/05/08 15:19:28;;;;;;;;;;;22.00;95.50;;;;;;2604215;54;20845;31
2022/05/08 15:22:02;;;;;;;;;;;21.90;96.20;;;;;;2604198;54;19938;31
2022/05/08 15:24:36;;;;;;;;;;;21.90;96.30;;;;;;2622790;46;20021;31
2022/05/08 15:27:10;;;;;;;;;;;21.80;96.20;;;;;;2622394;46;19935;31
2022/05/08 15:29:44;;;;;;;;;;;21.80;96.70;;;;;;2621641;46;19951;31
2022/05/08 15:32:20;;;;;;;;;;;21.80;96.70;;;;;;2603928;54;19938;31
2022/05/08 15:34:53;;;;;;;;;;;21.70;96.30;;;;;;2604092;54;19941;31
2022/05/08 15:37:27;;;;;;;;;;;21.60;96.60;;;;;;2622184;46;19935;31
2022/05/08 15:40:02;;;;;;;;;;;21.60;96.60;;;;;;2604166;54;19934;31
2022/05/08 15:42:37;;;;;;;;;;;21.60;96.80;;;;;;2604071;54;20757;31
2022/05/08 15:45:10;;;;;;;;;;;21.50;96.80;;;;;;2604036;54;19946;31
2022/05/08 15:47:48;;;;;;;;;;;21.30;97.00;;;;;;2622311;46;19934;31
2022/05/08 15:50:22;;;;;;;;;;;21.20;97.50;;;;;;2604061;54;19947;31